Charleston Heights, South Carolina
Current Conditions -  °F | °C
As of 12:56 AM on Monday 22 Dec 2014 (Local Time) from KCHS Reporting Station
Light Rain Light Rain  
Wind Chill:   Ceiling: 600
Heat Index:   Visibility: 5mi
Dew Point:   Wind: 8mph
Humidity: 97%   Direction: 40°NE
Pressure: 30.08"   Gusts: NA
Location:  32.8713°N, 80.0388°W
Report Text: KCHS 220556Z 04007KT 5SM -RA BR OVC006 08/08 A3008 RMK AO2 RAB04 SLP186 P0001 60016 T00830078 10094 20083 58012 $
Loading
Personal Weather Stations






























Interactive Weather Map New forecast layout! Learn more

10-Day Weather Forecast

Advertisements
Track Severe Weather on mobile